createdAt,value
2023-04-09T00:01:36.061Z,8.73
2023-04-09T00:04:02.823Z,8.30
2023-04-09T00:06:29.662Z,7.50
2023-04-09T00:08:56.330Z,7.65
2023-04-09T00:11:23.037Z,8.88
2023-04-09T00:13:49.796Z,8.73
2023-04-09T00:16:16.567Z,8.70
2023-04-09T00:18:43.328Z,8.52
2023-04-09T00:21:10.177Z,8.77
2023-04-09T00:23:36.926Z,8.70
2023-04-09T00:26:03.618Z,9.60
2023-04-09T00:28:30.596Z,10.75
2023-04-09T00:30:57.353Z,10.35
2023-04-09T00:33:24.289Z,9.85
2023-04-09T00:35:51.212Z,10.23
2023-04-09T00:38:18.037Z,10.27
2023-04-09T00:40:49.573Z,9.93
2023-04-09T00:43:18.000Z,9.98
2023-04-09T00:45:45.451Z,10.02
2023-04-09T00:48:16.117Z,9.88
2023-04-09T00:50:42.918Z,10.10
2023-04-09T00:53:10.966Z,10.77
2023-04-09T00:55:40.200Z,10.88
2023-04-09T00:58:07.350Z,10.02
2023-04-09T01:00:34.057Z,8.98
2023-04-09T01:03:01.411Z,10.32
2023-04-09T01:05:33.779Z,9.38
2023-04-09T01:08:45.753Z,9.27
2023-04-09T01:11:32.736Z,10.45
2023-04-09T01:14:06.899Z,11.43
2023-04-09T01:16:36.908Z,9.82
2023-04-09T01:19:13.646Z,10.13
2023-04-09T01:21:41.433Z,10.38
2023-04-09T01:24:42.786Z,10.18
2023-04-09T01:27:12.111Z,11.02
2023-04-09T01:29:51.616Z,11.18
2023-04-09T01:32:19.622Z,11.10
2023-04-09T01:34:47.188Z,11.15
2023-04-09T01:37:15.347Z,10.73
2023-04-09T01:39:42.494Z,11.93
2023-04-09T01:42:11.228Z,10.82
2023-04-09T01:44:41.568Z,12.05
2023-04-09T01:47:09.349Z,11.40
2023-04-09T01:49:36.584Z,12.23
2023-04-09T01:52:03.430Z,11.30
2023-04-09T01:54:30.298Z,11.68
2023-04-09T01:56:57.716Z,12.27
2023-04-09T01:59:24.468Z,11.75
2023-04-09T02:01:58.655Z,11.60
2023-04-09T02:04:37.453Z,12.80
2023-04-09T02:07:15.603Z,10.50
2023-04-09T02:09:44.615Z,11.43
2023-04-09T02:12:13.715Z,11.23
2023-04-09T02:14:41.442Z,12.63
2023-04-09T02:17:09.312Z,11.27
2023-04-09T02:19:43.229Z,12.20
2023-04-09T02:22:10.784Z,12.40
2023-04-09T02:24:37.989Z,12.40
2023-04-09T02:27:06.084Z,12.73
2023-04-09T02:29:32.951Z,12.43
2023-04-09T02:32:00.165Z,11.73
2023-04-09T02:34:27.177Z,12.15
2023-04-09T02:36:53.887Z,12.13
2023-04-09T02:39:20.600Z,11.90
2023-04-09T02:41:47.307Z,12.45
2023-04-09T02:44:13.999Z,12.20
2023-04-09T02:46:44.147Z,11.73
2023-04-09T02:49:10.966Z,12.13
2023-04-09T02:51:37.931Z,12.23
2023-04-09T02:54:04.736Z,10.82
2023-04-09T02:56:31.444Z,12.00
2023-04-09T02:58:58.318Z,12.77
2023-04-09T03:01:25.175Z,12.77
2023-04-09T03:03:51.959Z,12.82
2023-04-09T03:06:18.740Z,12.95
2023-04-09T03:08:45.795Z,12.50
2023-04-09T03:11:12.520Z,12.25
2023-04-09T03:13:39.217Z,12.48
2023-04-09T03:16:06.302Z,13.05
2023-04-09T03:18:33.295Z,12.32
2023-04-09T03:20:59.945Z,11.88
2023-04-09T03:23:31.116Z,13.07
2023-04-09T03:26:03.628Z,13.27
2023-04-09T03:28:34.806Z,11.05
2023-04-09T03:31:01.534Z,12.02
2023-04-09T03:33:29.223Z,11.27
2023-04-09T03:35:58.724Z,11.43
2023-04-09T03:38:48.697Z,12.05
2023-04-09T03:41:26.499Z,11.30
2023-04-09T03:43:54.346Z,10.95
2023-04-09T03:46:25.935Z,11.45
2023-04-09T03:48:52.883Z,11.73
2023-04-09T03:51:20.162Z,11.88
2023-04-09T03:53:52.909Z,12.20
2023-04-09T03:56:19.810Z,11.93
2023-04-09T03:58:48.488Z,10.75
2023-04-09T04:01:17.005Z,11.27
2023-04-09T04:03:53.759Z,12.35
2023-04-09T04:06:25.952Z,12.68
2023-04-09T04:09:09.757Z,12.95
2023-04-09T04:11:48.252Z,10.93
2023-04-09T04:14:15.916Z,12.07
2023-04-09T04:16:46.193Z,11.05
2023-04-09T04:19:17.137Z,11.73
2023-04-09T04:21:47.953Z,11.60
2023-04-09T04:24:15.265Z,11.40
2023-04-09T04:26:41.969Z,10.65
2023-04-09T04:29:11.353Z,10.25
2023-04-09T04:31:50.290Z,12.27
2023-04-09T04:34:20.549Z,11.48
2023-04-09T04:36:53.945Z,11.57
2023-04-09T04:39:20.616Z,11.07
2023-04-09T04:41:53.147Z,11.07
2023-04-09T04:44:26.008Z,11.90
2023-04-09T04:47:00.217Z,11.55
2023-04-09T04:49:26.896Z,11.20
2023-04-09T04:51:54.150Z,11.98
2023-04-09T04:54:20.946Z,13.05
2023-04-09T04:56:51.715Z,12.60
2023-04-09T04:59:37.306Z,11.07
2023-04-09T05:02:08.998Z,12.32
2023-04-09T05:04:46.462Z,12.32
2023-04-09T05:07:16.327Z,11.43
2023-04-09T05:09:49.849Z,11.55
2023-04-09T05:12:18.094Z,12.38
2023-04-09T05:17:16.633Z,12.00
2023-04-09T05:19:51.364Z,12.43
2023-04-09T05:22:19.703Z,11.88
2023-04-09T05:24:47.013Z,11.88
2023-04-09T05:27:14.873Z,12.30
2023-04-09T05:29:41.629Z,12.98
2023-04-09T05:32:09.513Z,11.98
2023-04-09T05:34:39.287Z,12.55
2023-04-09T05:37:06.063Z,15.68
2023-04-09T05:39:34.154Z,14.55
2023-04-09T05:42:01.829Z,14.13
2023-04-09T05:44:44.381Z,14.93
2023-04-09T05:47:15.981Z,16.25
2023-04-09T05:49:51.981Z,16.42
2023-04-09T05:52:19.716Z,15.50
2023-04-09T05:54:46.483Z,17.38
2023-04-09T05:57:17.644Z,15.85
2023-04-09T05:59:51.830Z,15.95
2023-04-09T06:02:18.718Z,16.45
2023-04-09T06:04:45.952Z,15.68
2023-04-09T06:07:14.708Z,18.38
2023-04-09T06:09:44.171Z,16.40
2023-04-09T06:12:11.070Z,15.63
2023-04-09T06:14:37.748Z,17.35
2023-04-09T06:17:05.581Z,15.77
2023-04-09T06:19:32.287Z,16.55
2023-04-09T06:21:58.988Z,18.35
2023-04-09T06:24:25.623Z,16.55
2023-04-09T06:26:52.398Z,16.48
2023-04-09T06:29:19.104Z,18.08
2023-04-09T06:31:46.552Z,16.50
2023-04-09T06:34:13.247Z,16.70
2023-04-09T06:36:40.494Z,17.08
2023-04-09T06:39:07.384Z,17.33
2023-04-09T06:41:34.042Z,16.63
2023-04-09T06:44:07.138Z,15.65
2023-04-09T06:46:33.895Z,16.23
2023-04-09T06:49:00.772Z,17.40
2023-04-09T06:51:27.495Z,17.63
2023-04-09T06:53:54.813Z,17.42
2023-04-09T06:56:21.815Z,17.85
2023-04-09T06:58:48.481Z,18.13
2023-04-09T07:01:17.106Z,18.73
2023-04-09T07:03:43.939Z,18.08
2023-04-09T07:06:10.754Z,16.38
2023-04-09T07:08:37.381Z,17.88
2023-04-09T07:11:04.016Z,18.08
2023-04-09T07:13:31.244Z,18.05
2023-04-09T07:15:58.034Z,17.10
2023-04-09T07:18:24.680Z,16.42
2023-04-09T07:20:52.458Z,18.02
2023-04-09T07:23:19.396Z,17.02
2023-04-09T07:25:46.050Z,18.88
2023-04-09T07:28:13.035Z,18.90
2023-04-09T07:30:40.344Z,18.65
2023-04-09T07:33:07.029Z,19.55
2023-04-09T07:35:34.694Z,17.63
2023-04-09T07:38:01.481Z,17.20
2023-04-09T07:40:28.190Z,16.67
2023-04-09T07:42:55.748Z,17.25
2023-04-09T07:45:22.386Z,17.40
2023-04-09T07:47:49.171Z,16.48
2023-04-09T07:50:16.196Z,16.08
2023-04-09T07:52:42.994Z,15.63
2023-04-09T07:55:10.012Z,16.05
2023-04-09T07:57:36.951Z,15.95
2023-04-09T08:00:04.466Z,14.68
2023-04-09T08:02:39.977Z,15.10
2023-04-09T08:05:07.860Z,14.88
2023-04-09T08:07:34.804Z,13.80
2023-04-09T08:10:01.496Z,13.90
2023-04-09T08:12:28.191Z,12.25
2023-04-09T08:14:54.894Z,14.30
2023-04-09T08:17:22.389Z,12.80
2023-04-09T08:19:49.744Z,13.45
2023-04-09T08:22:16.429Z,12.57
2023-04-09T08:24:43.802Z,13.07
2023-04-09T08:27:10.964Z,13.52
2023-04-09T08:29:39.165Z,12.90
2023-04-09T08:32:06.089Z,13.30
2023-04-09T08:34:32.904Z,13.85
2023-04-09T08:37:00.395Z,12.77
2023-04-09T08:39:27.079Z,14.23
2023-04-09T08:41:54.870Z,13.52
2023-04-09T08:44:22.089Z,13.32
2023-04-09T08:46:48.768Z,13.93
2023-04-09T08:49:15.671Z,13.00
2023-04-09T08:51:46.317Z,13.57
2023-04-09T08:54:15.946Z,13.15
2023-04-09T08:56:43.031Z,10.90
2023-04-09T08:59:09.853Z,12.85
2023-04-09T09:01:36.653Z,13.07
2023-04-09T09:04:08.264Z,14.80
2023-04-09T09:06:39.953Z,13.05
2023-04-09T09:09:06.773Z,13.98
2023-04-09T09:11:41.427Z,12.05
2023-04-09T09:14:12.500Z,11.85
2023-04-09T09:16:43.243Z,11.05
2023-04-09T09:19:31.005Z,12.27
2023-04-09T09:21:59.319Z,11.77
2023-04-09T09:24:26.199Z,10.48
2023-04-09T09:26:54.428Z,10.35
2023-04-09T09:29:21.518Z,9.25
2023-04-09T09:31:49.840Z,11.50
2023-04-09T09:34:17.588Z,10.35
2023-04-09T09:36:44.921Z,11.32
2023-04-09T09:39:13.144Z,8.68
2023-04-09T09:41:41.701Z,9.02
2023-04-09T09:44:09.920Z,9.50
2023-04-09T09:46:38.614Z,9.88
2023-04-09T09:49:05.869Z,8.40
2023-04-09T09:51:34.046Z,7.90
2023-04-09T09:54:01.540Z,10.00
2023-04-09T09:56:35.980Z,8.00
2023-04-09T09:59:22.116Z,8.90
2023-04-09T10:01:53.918Z,9.05
2023-04-09T10:04:21.358Z,8.60
2023-04-09T10:06:48.327Z,9.88
2023-04-09T10:09:15.572Z,8.90
2023-04-09T10:11:47.892Z,9.20
2023-04-09T10:14:14.911Z,8.53
2023-04-09T10:16:41.942Z,8.68
2023-04-09T10:19:13.758Z,9.05
2023-04-09T10:21:45.525Z,8.10
2023-04-09T10:24:12.489Z,7.38
2023-04-09T10:26:44.936Z,7.20
2023-04-09T10:29:14.646Z,8.55
2023-04-09T10:31:50.471Z,7.72
2023-04-09T10:34:28.041Z,8.02
2023-04-09T10:36:59.662Z,6.03
2023-04-09T10:39:41.664Z,7.70
2023-04-09T10:42:12.873Z,7.78
2023-04-09T10:44:41.603Z,5.95
2023-04-09T10:47:09.876Z,5.97
2023-04-09T10:49:41.256Z,6.60
2023-04-09T10:52:11.931Z,4.85
2023-04-09T10:54:46.227Z,5.60
2023-04-09T10:57:13.865Z,4.95
2023-04-09T10:59:42.647Z,4.85
2023-04-09T11:02:30.548Z,5.70
2023-04-09T11:05:12.774Z,6.03
2023-04-09T11:07:41.438Z,6.90
2023-04-09T11:10:08.705Z,5.40
2023-04-09T11:12:35.382Z,5.05
2023-04-09T11:15:02.084Z,5.13
2023-04-09T11:17:28.825Z,5.00
2023-04-09T11:19:55.880Z,4.40
2023-04-09T11:22:22.520Z,4.55
2023-04-09T11:24:50.902Z,5.00
2023-04-09T11:27:19.511Z,4.25
2023-04-09T11:29:46.182Z,4.88
2023-04-09T11:32:12.940Z,4.18
2023-04-09T11:34:39.563Z,5.10
2023-04-09T11:37:09.280Z,5.28
2023-04-09T11:39:39.217Z,4.95
2023-04-09T11:42:05.976Z,4.50
2023-04-09T11:44:32.673Z,4.30
2023-04-09T11:46:59.915Z,4.82
2023-04-09T11:49:26.762Z,5.32
2023-04-09T11:51:53.563Z,5.18
2023-04-09T11:54:20.305Z,4.35
2023-04-09T11:56:55.684Z,4.72
2023-04-09T11:59:22.432Z,4.43
2023-04-09T12:01:50.315Z,4.85
2023-04-09T12:04:21.471Z,4.82
2023-04-09T12:06:48.827Z,4.72
2023-04-09T12:09:16.253Z,5.80
2023-04-09T12:11:44.497Z,4.82
2023-04-09T12:14:16.350Z,4.38
2023-04-09T12:16:45.039Z,4.50
2023-04-09T12:19:13.098Z,4.88
2023-04-09T12:21:58.248Z,4.10
2023-04-09T12:24:25.954Z,4.68
2023-04-09T12:26:52.804Z,5.50
2023-04-09T12:29:20.605Z,5.20
2023-04-09T12:31:47.454Z,5.13
2023-04-09T12:34:14.398Z,4.70
2023-04-09T12:36:43.827Z,4.07
2023-04-09T12:39:10.547Z,6.32
2023-04-09T12:41:37.244Z,4.75
2023-04-09T12:44:05.066Z,4.97
2023-04-09T12:46:32.379Z,3.92
2023-04-09T12:48:59.414Z,4.97
2023-04-09T12:51:26.193Z,4.57
2023-04-09T12:53:53.182Z,4.28
2023-04-09T12:56:20.216Z,3.88
2023-04-09T12:58:46.907Z,3.72
2023-04-09T13:01:13.657Z,4.03
2023-04-09T13:03:41.487Z,4.05
2023-04-09T13:06:08.633Z,4.57
2023-04-09T13:08:35.773Z,4.47
2023-04-09T13:11:02.793Z,5.10
2023-04-09T13:13:29.788Z,4.03
2023-04-09T13:15:57.192Z,4.55
2023-04-09T13:18:23.998Z,5.10
2023-04-09T13:20:50.730Z,3.63
2023-04-09T13:23:17.492Z,4.50
2023-04-09T13:25:44.227Z,3.90
2023-04-09T13:28:10.973Z,4.10
2023-04-09T13:30:38.092Z,3.72
2023-04-09T13:33:04.875Z,4.20
2023-04-09T13:35:31.670Z,3.50
2023-04-09T13:37:58.433Z,3.55
2023-04-09T13:40:25.210Z,4.13
2023-04-09T13:42:51.895Z,3.55
2023-04-09T13:45:20.276Z,3.33
2023-04-09T13:47:47.057Z,4.00
2023-04-09T13:50:13.907Z,3.40
2023-04-09T13:52:40.669Z,3.72
2023-04-09T13:55:08.274Z,3.30
2023-04-09T13:57:34.996Z,3.35
2023-04-09T14:00:04.430Z,3.53
2023-04-09T14:02:32.626Z,3.60
2023-04-09T14:04:59.845Z,4.05
2023-04-09T14:07:26.566Z,3.50
2023-04-09T14:09:53.311Z,3.55
2023-04-09T14:12:20.295Z,3.58
2023-04-09T14:14:47.115Z,3.28
2023-04-09T14:17:13.885Z,4.05
2023-04-09T14:19:40.799Z,3.58
2023-04-09T14:22:08.719Z,3.10
2023-04-09T14:24:39.787Z,3.25
2023-04-09T14:27:08.173Z,3.20
2023-04-09T14:29:35.102Z,3.55
2023-04-09T14:32:01.999Z,3.70
2023-04-09T14:34:31.293Z,4.10
2023-04-09T14:36:57.997Z,3.03
2023-04-09T14:39:25.180Z,3.67
2023-04-09T14:41:52.277Z,3.22
2023-04-09T14:44:19.043Z,3.75
2023-04-09T14:46:45.828Z,3.42
2023-04-09T14:49:12.591Z,3.63
2023-04-09T14:51:39.405Z,3.17
2023-04-09T14:54:06.058Z,3.45
2023-04-09T14:56:32.822Z,3.15
2023-04-09T14:58:59.960Z,3.10
2023-04-09T15:01:27.364Z,3.28
2023-04-09T15:03:54.872Z,3.78
2023-04-09T15:06:21.630Z,3.60
2023-04-09T15:08:48.389Z,3.70
2023-04-09T15:11:19.942Z,3.70
2023-04-09T15:13:46.543Z,3.42
2023-04-09T15:16:21.847Z,3.83
2023-04-09T15:18:51.333Z,4.57
2023-04-09T15:21:18.907Z,3.88
2023-04-09T15:23:46.150Z,3.95
2023-04-09T15:26:12.922Z,4.45
2023-04-09T15:28:39.817Z,4.35
2023-04-09T15:31:06.633Z,4.65
2023-04-09T15:33:33.423Z,4.60
2023-04-09T15:36:00.422Z,4.65
2023-04-09T15:38:27.409Z,4.80
2023-04-09T15:40:55.998Z,4.00
2023-04-09T15:43:23.358Z,4.25
2023-04-09T15:45:53.300Z,4.80
2023-04-09T15:48:20.134Z,4.78
2023-04-09T15:50:46.905Z,4.75
2023-04-09T15:53:14.915Z,4.85
2023-04-09T15:55:41.907Z,4.82
2023-04-09T15:58:08.618Z,4.88
2023-04-09T16:00:35.776Z,4.75
2023-04-09T16:03:02.400Z,4.60
2023-04-09T16:05:29.058Z,5.00
2023-04-09T16:07:57.017Z,4.30
2023-04-09T16:10:25.934Z,4.78
2023-04-09T16:12:52.681Z,4.50
2023-04-09T16:15:19.397Z,4.82
2023-04-09T16:17:46.116Z,4.43
2023-04-09T16:20:12.837Z,4.70
2023-04-09T16:22:39.531Z,5.22
2023-04-09T16:25:06.596Z,4.28
2023-04-09T16:27:33.236Z,4.93
2023-04-09T16:30:00.255Z,4.72
2023-04-09T16:32:27.362Z,4.55
2023-04-09T16:34:54.110Z,4.45
2023-04-09T16:37:20.803Z,5.03
2023-04-09T16:39:47.476Z,5.10
2023-04-09T16:42:14.407Z,4.30
2023-04-09T16:44:41.103Z,5.18
2023-04-09T16:47:08.242Z,4.80
2023-04-09T16:49:34.990Z,5.10
2023-04-09T16:52:01.937Z,4.60
2023-04-09T16:54:28.682Z,5.55
2023-04-09T16:56:55.793Z,5.18
2023-04-09T16:59:22.487Z,4.40
2023-04-09T17:01:49.392Z,4.75
2023-04-09T17:04:16.378Z,4.70
2023-04-09T17:06:43.222Z,5.30
2023-04-09T17:09:10.037Z,5.10
2023-04-09T17:11:38.058Z,5.10
2023-04-09T17:14:04.895Z,4.78
2023-04-09T17:16:31.768Z,4.80
2023-04-09T17:18:58.624Z,4.80
2023-04-09T17:21:26.287Z,4.97
2023-04-09T17:23:53.061Z,4.93
2023-04-09T17:26:20.740Z,4.30
2023-04-09T17:28:47.905Z,4.30
2023-04-09T17:31:15.961Z,4.32
2023-04-09T17:33:46.892Z,4.95
2023-04-09T17:36:14.139Z,5.50
2023-04-09T17:38:40.897Z,5.13
2023-04-09T17:41:07.828Z,5.43
2023-04-09T17:43:34.541Z,5.25
2023-04-09T17:46:01.562Z,5.40
2023-04-09T17:48:30.747Z,5.78
2023-04-09T17:50:58.827Z,5.00
2023-04-09T17:53:25.533Z,5.13
2023-04-09T17:55:52.756Z,5.88
2023-04-09T17:58:19.433Z,6.80
2023-04-09T18:00:46.240Z,7.00
2023-04-09T18:03:13.223Z,7.30
2023-04-09T18:05:40.456Z,6.80
2023-04-09T18:08:07.841Z,5.70
2023-04-09T18:10:34.631Z,5.70
2023-04-09T18:13:01.372Z,6.07
2023-04-09T18:15:28.443Z,6.28
2023-04-09T18:17:55.460Z,5.60
2023-04-09T18:20:22.208Z,5.05
2023-04-09T18:22:49.057Z,5.18
2023-04-09T18:25:16.003Z,5.22
2023-04-09T18:27:42.697Z,5.63
2023-04-09T18:30:09.639Z,5.55
2023-04-09T18:32:37.324Z,10.18
2023-04-09T18:35:04.487Z,7.85
2023-04-09T18:37:31.422Z,6.80
2023-04-09T18:39:58.831Z,5.07
2023-04-09T18:42:26.880Z,5.53
2023-04-09T18:44:53.528Z,5.30
2023-04-09T18:47:20.727Z,6.47
2023-04-09T18:49:47.464Z,6.78
2023-04-09T18:52:14.133Z,6.85
2023-04-09T18:54:40.965Z,6.80
2023-04-09T18:57:08.604Z,5.95
2023-04-09T18:59:35.591Z,8.20
2023-04-09T19:02:06.006Z,8.23
2023-04-09T19:04:39.794Z,6.85
2023-04-09T19:07:07.064Z,6.20
2023-04-09T19:09:34.481Z,6.40
2023-04-09T19:12:01.850Z,8.63
2023-04-09T19:14:28.684Z,9.70
2023-04-09T19:16:58.749Z,8.35
2023-04-09T19:19:33.167Z,7.03
2023-04-09T19:21:59.864Z,7.20
2023-04-09T19:24:26.855Z,7.53
2023-04-09T19:26:57.917Z,8.57
2023-04-09T19:29:24.801Z,8.10
2023-04-09T19:31:51.524Z,7.88
2023-04-09T19:34:18.424Z,8.88
2023-04-09T19:36:45.257Z,8.50
2023-04-09T19:39:12.312Z,6.47
2023-04-09T19:41:39.093Z,6.45
2023-04-09T19:44:07.357Z,7.10
2023-04-09T19:46:34.154Z,6.65
2023-04-09T19:49:01.316Z,7.07
2023-04-09T19:51:28.775Z,6.30
2023-04-09T19:53:56.283Z,6.63
2023-04-09T19:56:22.953Z,7.90
2023-04-09T19:58:49.750Z,7.35
2023-04-09T20:01:17.091Z,7.20
2023-04-09T20:03:44.084Z,7.43
2023-04-09T20:06:10.974Z,6.80
2023-04-09T20:08:40.814Z,6.55
2023-04-09T20:11:07.601Z,6.70
2023-04-09T20:13:34.373Z,6.03
2023-04-09T20:16:01.505Z,6.72
2023-04-09T20:18:28.691Z,6.68
2023-04-09T20:20:55.409Z,5.75
2023-04-09T20:23:22.171Z,6.68
2023-04-09T20:25:53.597Z,5.63
2023-04-09T20:28:20.311Z,6.22
2023-04-09T20:30:46.936Z,6.68
2023-04-09T20:33:13.582Z,6.55
2023-04-09T20:35:40.396Z,6.18
2023-04-09T20:38:07.095Z,6.82
2023-04-09T20:40:36.319Z,5.93
2023-04-09T20:43:03.442Z,6.05
2023-04-09T20:45:30.729Z,6.60
2023-04-09T20:47:57.582Z,6.30
2023-04-09T20:50:24.310Z,6.78
2023-04-09T20:52:51.192Z,6.03
2023-04-09T20:55:17.970Z,5.65
2023-04-09T20:57:44.596Z,6.05
2023-04-09T21:00:12.351Z,6.35
2023-04-09T21:02:40.360Z,6.20
2023-04-09T21:05:19.708Z,6.38
2023-04-09T21:07:50.729Z,6.30
2023-04-09T21:10:17.536Z,6.50
2023-04-09T21:12:44.260Z,6.00
2023-04-09T21:15:11.384Z,5.88
2023-04-09T21:17:38.179Z,6.45
2023-04-09T21:20:05.349Z,6.45
2023-04-09T21:22:32.040Z,6.72
2023-04-09T21:24:58.777Z,5.95
2023-04-09T21:27:25.470Z,5.93
2023-04-09T21:29:53.644Z,6.93
2023-04-09T21:32:20.574Z,7.43
2023-04-09T21:34:47.307Z,7.13
2023-04-09T21:37:14.237Z,6.95
2023-04-09T21:39:40.991Z,7.50
2023-04-09T21:42:08.750Z,7.15
2023-04-09T21:44:35.544Z,7.47
2023-04-09T21:47:07.421Z,7.40
2023-04-09T21:49:39.045Z,7.20
2023-04-09T21:52:10.768Z,7.57
2023-04-09T21:54:37.542Z,7.07
2023-04-09T21:57:04.960Z,7.50
2023-04-09T21:59:31.668Z,7.13
2023-04-09T22:01:58.487Z,7.38
2023-04-09T22:04:25.788Z,7.32
2023-04-09T22:06:52.510Z,7.03
2023-04-09T22:09:19.251Z,7.82
2023-04-09T22:11:46.359Z,7.40
2023-04-09T22:14:15.136Z,7.57
2023-04-09T22:16:41.910Z,7.43
2023-04-09T22:19:08.611Z,7.93
2023-04-09T22:21:35.541Z,8.30
2023-04-09T22:24:02.301Z,7.70
2023-04-09T22:26:29.015Z,7.75
2023-04-09T22:28:56.201Z,7.88
2023-04-09T22:31:23.367Z,7.55
2023-04-09T22:33:50.440Z,7.18
2023-04-09T22:36:17.226Z,7.95
2023-04-09T22:38:43.996Z,7.93
2023-04-09T22:41:10.910Z,7.78
2023-04-09T22:43:37.704Z,8.38
2023-04-09T22:46:04.662Z,7.95
2023-04-09T22:48:33.913Z,7.95
2023-04-09T22:51:00.708Z,8.38
2023-04-09T22:53:27.538Z,8.32
2023-04-09T22:55:54.920Z,7.97
2023-04-09T22:58:21.840Z,8.85
2023-04-09T23:00:49.592Z,8.45
2023-04-09T23:03:17.036Z,7.47
2023-04-09T23:05:43.898Z,8.00
2023-04-09T23:08:11.376Z,8.68
2023-04-09T23:10:38.246Z,8.63
2023-04-09T23:13:05.284Z,8.20
2023-04-09T23:15:32.081Z,7.30
2023-04-09T23:17:58.908Z,7.95
2023-04-09T23:20:26.280Z,7.85
2023-04-09T23:22:53.132Z,8.50
2023-04-09T23:25:21.686Z,8.13
2023-04-09T23:27:48.789Z,8.05
2023-04-09T23:30:17.029Z,8.68
2023-04-09T23:32:45.009Z,8.60
2023-04-09T23:35:11.963Z,7.65
2023-04-09T23:37:40.122Z,7.45
2023-04-09T23:40:07.578Z,8.40
2023-04-09T23:42:34.719Z,7.82
2023-04-09T23:45:04.038Z,8.25
2023-04-09T23:47:33.234Z,8.05
2023-04-09T23:50:04.988Z,8.18
2023-04-09T23:52:34.140Z,8.10
2023-04-09T23:55:01.209Z,8.05
2023-04-09T23:57:28.538Z,8.70
2023-04-09T23:59:55.531Z,7.80
